sensor_id;sensor_type;location;lat;lon;timestamp;temperature;humidity
12053;DHT22;6087;48.982;12.064;2023-04-25T00:01:21;8.50;1.00
12053;DHT22;6087;48.982;12.064;2023-04-25T00:03:48;8.50;1.00
12053;DHT22;6087;48.982;12.064;2023-04-25T00:06:15;8.50;1.00
12053;DHT22;6087;48.982;12.064;2023-04-25T00:08:43;8.50;99.90
12053;DHT22;6087;48.982;12.064;2023-04-25T00:11:10;8.50;99.90
12053;DHT22;6087;48.982;12.064;2023-04-25T00:13:37;8.50;99.90
12053;DHT22;6087;48.982;12.064;2023-04-25T00:16:08;8.50;99.90
12053;DHT22;6087;48.982;12.064;2023-04-25T00:18:36;8.60;99.90
12053;DHT22;6087;48.982;12.064;2023-04-25T00:21:03;8.60;99.90
12053;DHT22;6087;48.982;12.064;2023-04-25T00:23:34;8.60;99.90
12053;DHT22;6087;48.982;12.064;2023-04-25T00:26:02;8.60;99.90
12053;DHT22;6087;48.982;12.064;2023-04-25T00:28:29;8.50;1.00
12053;DHT22;6087;48.982;12.064;2023-04-25T00:31:05;8.40;99.90
12053;DHT22;6087;48.982;12.064;2023-04-25T00:33:32;8.40;1.00
12053;DHT22;6087;48.982;12.064;2023-04-25T00:35:59;8.30;1.00
12053;DHT22;6087;48.982;12.064;2023-04-25T00:38:26;8.30;29.10
12053;DHT22;6087;48.982;12.064;2023-04-25T00:40:53;8.30;1.00
12053;DHT22;6087;48.982;12.064;2023-04-25T00:43:21;8.40;1.00
12053;DHT22;6087;48.982;12.064;2023-04-25T00:45:48;8.30;99.90
12053;DHT22;6087;48.982;12.064;2023-04-25T00:48:17;8.40;99.90
12053;DHT22;6087;48.982;12.064;2023-04-25T00:50:51;8.30;99.90
12053;DHT22;6087;48.982;12.064;2023-04-25T00:53:18;8.30;99.90
12053;DHT22;6087;48.982;12.064;2023-04-25T00:55:50;8.40;1.00
12053;DHT22;6087;48.982;12.064;2023-04-25T00:58:18;8.40;99.90
12053;DHT22;6087;48.982;12.064;2023-04-25T01:00:47;8.30;1.00
12053;DHT22;6087;48.982;12.064;2023-04-25T01:03:14;8.40;99.90
12053;DHT22;6087;48.982;12.064;2023-04-25T01:05:44;8.40;99.90
12053;DHT22;6087;48.982;12.064;2023-04-25T01:08:11;8.40;1.00
12053;DHT22;6087;48.982;12.064;2023-04-25T01:10:38;8.40;1.00
12053;DHT22;6087;48.982;12.064;2023-04-25T01:13:05;8.40;1.00
12053;DHT22;6087;48.982;12.064;2023-04-25T01:15:32;8.40;99.90
12053;DHT22;6087;48.982;12.064;2023-04-25T01:18:16;8.40;99.90
12053;DHT22;6087;48.982;12.064;2023-04-25T01:20:46;8.40;1.00
12053;DHT22;6087;48.982;12.064;2023-04-25T01:23:14;8.30;1.00
12053;DHT22;6087;48.982;12.064;2023-04-25T01:25:42;8.30;1.00
12053;DHT22;6087;48.982;12.064;2023-04-25T01:28:09;8.30;99.90
12053;DHT22;6087;48.982;12.064;2023-04-25T01:30:36;8.40;1.00
12053;DHT22;6087;48.982;12.064;2023-04-25T01:33:03;8.30;60.90
12053;DHT22;6087;48.982;12.064;2023-04-25T01:35:31;8.30;99.90
12053;DHT22;6087;48.982;12.064;2023-04-25T01:37:58;8.20;1.00
12053;DHT22;6087;48.982;12.064;2023-04-25T01:40:27;8.20;99.90
12053;DHT22;6087;48.982;12.064;2023-04-25T01:42:54;8.20;1.00
12053;DHT22;6087;48.982;12.064;2023-04-25T01:45:21;8.20;99.90
12053;DHT22;6087;48.982;12.064;2023-04-25T01:47:48;8.20;99.90
12053;DHT22;6087;48.982;12.064;2023-04-25T01:50:16;8.20;65.70
12053;DHT22;6087;48.982;12.064;2023-04-25T01:52:43;8.10;99.90
12053;DHT22;6087;48.982;12.064;2023-04-25T01:55:10;8.10;38.30
12053;DHT22;6087;48.982;12.064;2023-04-25T01:57:39;8.10;99.90
12053;DHT22;6087;48.982;12.064;2023-04-25T02:00:13;8.10;1.00
12053;DHT22;6087;48.982;12.064;2023-04-25T02:02:40;8.10;1.00
12053;DHT22;6087;48.982;12.064;2023-04-25T02:05:07;8.00;99.90
12053;DHT22;6087;48.982;12.064;2023-04-25T02:07:34;8.00;1.00
12053;DHT22;6087;48.982;12.064;2023-04-25T02:10:01;8.10;99.90
12053;DHT22;6087;48.982;12.064;2023-04-25T02:12:28;8.10;1.00
12053;DHT22;6087;48.982;12.064;2023-04-25T02:14:57;8.00;99.90
12053;DHT22;6087;48.982;12.064;2023-04-25T02:17:24;8.00;99.90
12053;DHT22;6087;48.982;12.064;2023-04-25T02:19:51;8.00;1.00
12053;DHT22;6087;48.982;12.064;2023-04-25T02:22:18;8.00;99.90
12053;DHT22;6087;48.982;12.064;2023-04-25T02:24:46;7.90;99.90
12053;DHT22;6087;48.982;12.064;2023-04-25T02:27:13;8.00;91.10
12053;DHT22;6087;48.982;12.064;2023-04-25T02:29:40;7.90;1.00
12053;DHT22;6087;48.982;12.064;2023-04-25T02:32:08;7.90;99.90
12053;DHT22;6087;48.982;12.064;2023-04-25T02:34:35;7.90;49.70
12053;DHT22;6087;48.982;12.064;2023-04-25T02:37:02;7.90;1.00
12053;DHT22;6087;48.982;12.064;2023-04-25T02:39:29;7.80;80.30
12053;DHT22;6087;48.982;12.064;2023-04-25T02:41:56;7.80;76.50
12053;DHT22;6087;48.982;12.064;2023-04-25T02:44:29;7.80;1.00
12053;DHT22;6087;48.982;12.064;2023-04-25T02:46:56;7.90;1.00
12053;DHT22;6087;48.982;12.064;2023-04-25T02:49:24;7.80;99.90
12053;DHT22;6087;48.982;12.064;2023-04-25T02:51:54;7.80;94.60
12053;DHT22;6087;48.982;12.064;2023-04-25T02:54:21;7.90;12.40
12053;DHT22;6087;48.982;12.064;2023-04-25T02:56:48;7.90;97.30
12053;DHT22;6087;48.982;12.064;2023-04-25T02:59:18;7.90;99.90
12053;DHT22;6087;48.982;12.064;2023-04-25T03:01:48;8.00;99.90
12053;DHT22;6087;48.982;12.064;2023-04-25T03:04:15;8.00;99.90
12053;DHT22;6087;48.982;12.064;2023-04-25T03:06:43;8.00;99.90
12053;DHT22;6087;48.982;12.064;2023-04-25T03:09:10;8.00;1.00
12053;DHT22;6087;48.982;12.064;2023-04-25T03:11:38;8.00;1.00
12053;DHT22;6087;48.982;12.064;2023-04-25T03:14:05;8.10;1.00
12053;DHT22;6087;48.982;12.064;2023-04-25T03:16:40;8.10;1.00
12053;DHT22;6087;48.982;12.064;2023-04-25T03:19:10;8.10;99.90
12053;DHT22;6087;48.982;12.064;2023-04-25T03:21:40;8.20;53.10
12053;DHT22;6087;48.982;12.064;2023-04-25T03:24:08;8.20;99.90
12053;DHT22;6087;48.982;12.064;2023-04-25T03:26:50;8.20;99.90
12053;DHT22;6087;48.982;12.064;2023-04-25T03:29:31;8.20;1.00
12053;DHT22;6087;48.982;12.064;2023-04-25T03:31:58;8.10;1.00
12053;DHT22;6087;48.982;12.064;2023-04-25T03:34:25;8.10;1.00
12053;DHT22;6087;48.982;12.064;2023-04-25T03:36:52;8.00;1.00
12053;DHT22;6087;48.982;12.064;2023-04-25T03:39:20;7.90;99.90
12053;DHT22;6087;48.982;12.064;2023-04-25T03:41:47;8.00;99.90
12053;DHT22;6087;48.982;12.064;2023-04-25T03:44:14;7.80;1.00
12053;DHT22;6087;48.982;12.064;2023-04-25T03:46:41;7.80;1.00
12053;DHT22;6087;48.982;12.064;2023-04-25T03:49:08;7.80;99.90
12053;DHT22;6087;48.982;12.064;2023-04-25T03:51:34;7.70;95.80
12053;DHT22;6087;48.982;12.064;2023-04-25T03:54:04;7.70;12.30
12053;DHT22;6087;48.982;12.064;2023-04-25T03:56:32;7.70;1.00
12053;DHT22;6087;48.982;12.064;2023-04-25T03:59:00;7.70;1.00
12053;DHT22;6087;48.982;12.064;2023-04-25T04:01:27;7.70;1.00
12053;DHT22;6087;48.982;12.064;2023-04-25T04:03:54;7.80;1.00
12053;DHT22;6087;48.982;12.064;2023-04-25T04:06:20;7.80;99.90
12053;DHT22;6087;48.982;12.064;2023-04-25T04:08:47;7.80;1.00
12053;DHT22;6087;48.982;12.064;2023-04-25T04:11:14;7.80;1.00
12053;DHT22;6087;48.982;12.064;2023-04-25T04:13:42;7.80;1.00
12053;DHT22;6087;48.982;12.064;2023-04-25T04:16:09;7.80;1.00
12053;DHT22;6087;48.982;12.064;2023-04-25T04:18:36;7.80;1.00
12053;DHT22;6087;48.982;12.064;2023-04-25T04:21:03;7.70;1.00
12053;DHT22;6087;48.982;12.064;2023-04-25T04:23:30;7.80;99.90
12053;DHT22;6087;48.982;12.064;2023-04-25T04:25:57;7.80;1.00
12053;DHT22;6087;48.982;12.064;2023-04-25T04:28:24;7.80;1.00
12053;DHT22;6087;48.982;12.064;2023-04-25T04:30:53;7.80;1.00
12053;DHT22;6087;48.982;12.064;2023-04-25T04:33:21;7.80;1.00
12053;DHT22;6087;48.982;12.064;2023-04-25T04:35:49;7.90;1.00
12053;DHT22;6087;48.982;12.064;2023-04-25T04:38:17;7.80;99.90
12053;DHT22;6087;48.982;12.064;2023-04-25T04:40:45;7.80;62.20
12053;DHT22;6087;48.982;12.064;2023-04-25T04:43:13;7.80;1.00
12053;DHT22;6087;48.982;12.064;2023-04-25T04:45:42;7.70;99.90
12053;DHT22;6087;48.982;12.064;2023-04-25T04:48:11;7.70;1.00
12053;DHT22;6087;48.982;12.064;2023-04-25T04:50:39;7.70;1.00
12053;DHT22;6087;48.982;12.064;2023-04-25T04:53:07;7.60;1.00
12053;DHT22;6087;48.982;12.064;2023-04-25T04:55:34;7.50;1.00
12053;DHT22;6087;48.982;12.064;2023-04-25T04:58:01;7.60;21.50
12053;DHT22;6087;48.982;12.064;2023-04-25T05:00:28;7.50;99.90
12053;DHT22;6087;48.982;12.064;2023-04-25T05:02:55;7.60;86.40
12053;DHT22;6087;48.982;12.064;2023-04-25T05:05:23;7.50;99.90
12053;DHT22;6087;48.982;12.064;2023-04-25T05:07:50;7.50;99.90
12053;DHT22;6087;48.982;12.064;2023-04-25T05:10:17;7.50;99.90
12053;DHT22;6087;48.982;12.064;2023-04-25T05:12:44;7.50;99.90
12053;DHT22;6087;48.982;12.064;2023-04-25T05:15:11;7.50;99.90
12053;DHT22;6087;48.982;12.064;2023-04-25T05:17:38;7.40;99.90
12053;DHT22;6087;48.982;12.064;2023-04-25T05:20:06;7.30;99.90
12053;DHT22;6087;48.982;12.064;2023-04-25T05:22:35;7.30;99.90
12053;DHT22;6087;48.982;12.064;2023-04-25T05:25:12;7.20;1.00
12053;DHT22;6087;48.982;12.064;2023-04-25T05:27:39;7.20;1.00
12053;DHT22;6087;48.982;12.064;2023-04-25T05:30:06;7.30;1.00
12053;DHT22;6087;48.982;12.064;2023-04-25T05:32:34;7.20;1.00
12053;DHT22;6087;48.982;12.064;2023-04-25T05:35:01;7.30;1.00
12053;DHT22;6087;48.982;12.064;2023-04-25T05:37:28;7.30;1.00
12053;DHT22;6087;48.982;12.064;2023-04-25T05:39:57;7.30;1.00
12053;DHT22;6087;48.982;12.064;2023-04-25T05:42:24;7.40;1.00
12053;DHT22;6087;48.982;12.064;2023-04-25T05:44:51;7.40;1.00
12053;DHT22;6087;48.982;12.064;2023-04-25T05:47:17;7.50;99.90
12053;DHT22;6087;48.982;12.064;2023-04-25T05:49:50;7.50;99.90
12053;DHT22;6087;48.982;12.064;2023-04-25T05:52:17;7.50;99.90
12053;DHT22;6087;48.982;12.064;2023-04-25T05:54:44;7.70;99.90
12053;DHT22;6087;48.982;12.064;2023-04-25T05:57:21;7.70;1.00
12053;DHT22;6087;48.982;12.064;2023-04-25T05:59:48;7.70;1.00
12053;DHT22;6087;48.982;12.064;2023-04-25T06:02:15;7.80;1.00
12053;DHT22;6087;48.982;12.064;2023-04-25T06:04:50;7.90;1.00
12053;DHT22;6087;48.982;12.064;2023-04-25T06:07:17;8.00;99.90
12053;DHT22;6087;48.982;12.064;2023-04-25T06:09:44;8.00;99.90
12053;DHT22;6087;48.982;12.064;2023-04-25T06:12:11;8.10;99.90
12053;DHT22;6087;48.982;12.064;2023-04-25T06:14:41;8.20;99.90
12053;DHT22;6087;48.982;12.064;2023-04-25T06:17:08;8.30;99.90
12053;DHT22;6087;48.982;12.064;2023-04-25T06:19:38;8.30;99.90
12053;DHT22;6087;48.982;12.064;2023-04-25T06:22:08;8.30;1.00
12053;DHT22;6087;48.982;12.064;2023-04-25T06:24:34;8.40;99.90
12053;DHT22;6087;48.982;12.064;2023-04-25T06:27:02;8.40;99.90
12053;DHT22;6087;48.982;12.064;2023-04-25T06:29:34;8.40;29.80
12053;DHT22;6087;48.982;12.064;2023-04-25T06:32:03;8.50;99.90
12053;DHT22;6087;48.982;12.064;2023-04-25T06:34:30;8.50;1.00
12053;DHT22;6087;48.982;12.064;2023-04-25T06:36:57;8.50;99.90
12053;DHT22;6087;48.982;12.064;2023-04-25T06:39:24;8.50;99.90
12053;DHT22;6087;48.982;12.064;2023-04-25T06:41:51;8.60;99.90
12053;DHT22;6087;48.982;12.064;2023-04-25T06:44:18;8.70;1.00
12053;DHT22;6087;48.982;12.064;2023-04-25T06:46:46;8.80;99.90
12053;DHT22;6087;48.982;12.064;2023-04-25T06:49:14;8.70;1.00
12053;DHT22;6087;48.982;12.064;2023-04-25T06:51:43;8.70;1.00
12053;DHT22;6087;48.982;12.064;2023-04-25T06:54:16;8.80;99.90
12053;DHT22;6087;48.982;12.064;2023-04-25T06:56:43;8.90;1.00
12053;DHT22;6087;48.982;12.064;2023-04-25T06:59:13;8.90;99.90
12053;DHT22;6087;48.982;12.064;2023-04-25T07:01:40;9.00;99.90
12053;DHT22;6087;48.982;12.064;2023-04-25T07:04:09;9.10;1.00
12053;DHT22;6087;48.982;12.064;2023-04-25T07:06:38;9.00;1.00
12053;DHT22;6087;48.982;12.064;2023-04-25T07:09:08;9.00;1.00
12053;DHT22;6087;48.982;12.064;2023-04-25T07:11:35;9.00;99.90
12053;DHT22;6087;48.982;12.064;2023-04-25T07:14:05;9.10;99.90
12053;DHT22;6087;48.982;12.064;2023-04-25T07:16:34;9.10;99.90
12053;DHT22;6087;48.982;12.064;2023-04-25T07:19:07;9.20;99.90
12053;DHT22;6087;48.982;12.064;2023-04-25T07:21:38;9.30;99.90
12053;DHT22;6087;48.982;12.064;2023-04-25T07:24:06;9.20;99.90
12053;DHT22;6087;48.982;12.064;2023-04-25T07:26:33;9.20;77.80
12053;DHT22;6087;48.982;12.064;2023-04-25T07:28:59;9.20;99.90
12053;DHT22;6087;48.982;12.064;2023-04-25T07:31:26;9.30;48.10
12053;DHT22;6087;48.982;12.064;2023-04-25T07:33:57;9.20;92.50
12053;DHT22;6087;48.982;12.064;2023-04-25T07:36:24;9.10;1.00
12053;DHT22;6087;48.982;12.064;2023-04-25T07:38:53;9.10;1.00
12053;DHT22;6087;48.982;12.064;2023-04-25T07:41:32;9.10;1.00
12053;DHT22;6087;48.982;12.064;2023-04-25T07:43:59;9.10;1.00
12053;DHT22;6087;48.982;12.064;2023-04-25T07:46:25;9.10;1.00
12053;DHT22;6087;48.982;12.064;2023-04-25T07:48:52;9.10;1.00
12053;DHT22;6087;48.982;12.064;2023-04-25T07:51:19;9.10;1.00
12053;DHT22;6087;48.982;12.064;2023-04-25T07:53:50;9.20;1.00
12053;DHT22;6087;48.982;12.064;2023-04-25T07:56:18;9.20;1.00
12053;DHT22;6087;48.982;12.064;2023-04-25T07:58:48;9.20;1.00
12053;DHT22;6087;48.982;12.064;2023-04-25T08:01:27;9.20;1.00
12053;DHT22;6087;48.982;12.064;2023-04-25T08:03:57;9.20;1.00
12053;DHT22;6087;48.982;12.064;2023-04-25T08:06:23;9.20;99.90
12053;DHT22;6087;48.982;12.064;2023-04-25T08:08:53;9.20;1.00
12053;DHT22;6087;48.982;12.064;2023-04-25T08:11:22;9.20;1.00
12053;DHT22;6087;48.982;12.064;2023-04-25T08:13:49;9.30;1.00
12053;DHT22;6087;48.982;12.064;2023-04-25T08:16:16;9.30;1.00
12053;DHT22;6087;48.982;12.064;2023-04-25T08:18:47;9.40;99.90
12053;DHT22;6087;48.982;12.064;2023-04-25T08:21:14;9.50;99.90
12053;DHT22;6087;48.982;12.064;2023-04-25T08:23:41;9.50;99.90
12053;DHT22;6087;48.982;12.064;2023-04-25T08:26:08;9.70;99.90
12053;DHT22;6087;48.982;12.064;2023-04-25T08:28:37;9.80;99.90
12053;DHT22;6087;48.982;12.064;2023-04-25T08:31:04;9.90;1.00
12053;DHT22;6087;48.982;12.064;2023-04-25T08:33:31;10.00;1.00
12053;DHT22;6087;48.982;12.064;2023-04-25T08:35:58;10.00;1.00
12053;DHT22;6087;48.982;12.064;2023-04-25T08:38:25;10.00;1.00
12053;DHT22;6087;48.982;12.064;2023-04-25T08:40:52;10.00;1.00
12053;DHT22;6087;48.982;12.064;2023-04-25T08:43:20;10.00;1.00
12053;DHT22;6087;48.982;12.064;2023-04-25T08:45:49;10.10;99.90
12053;DHT22;6087;48.982;12.064;2023-04-25T08:48:17;10.10;99.90
12053;DHT22;6087;48.982;12.064;2023-04-25T08:50:47;10.10;99.90
12053;DHT22;6087;48.982;12.064;2023-04-25T08:53:16;10.10;99.90
12053;DHT22;6087;48.982;12.064;2023-04-25T08:55:45;10.10;99.90
12053;DHT22;6087;48.982;12.064;2023-04-25T08:58:18;10.10;99.90
12053;DHT22;6087;48.982;12.064;2023-04-25T09:00:46;10.10;99.90
12053;DHT22;6087;48.982;12.064;2023-04-25T09:03:15;10.10;99.90
12053;DHT22;6087;48.982;12.064;2023-04-25T09:05:42;10.10;99.90
12053;DHT22;6087;48.982;12.064;2023-04-25T09:08:09;10.20;99.90
12053;DHT22;6087;48.982;12.064;2023-04-25T09:10:36;10.20;99.90
12053;DHT22;6087;48.982;12.064;2023-04-25T09:13:05;10.30;99.90
12053;DHT22;6087;48.982;12.064;2023-04-25T09:15:32;10.30;99.90
12053;DHT22;6087;48.982;12.064;2023-04-25T09:17:59;10.20;99.90
12053;DHT22;6087;48.982;12.064;2023-04-25T09:20:28;10.10;99.90
12053;DHT22;6087;48.982;12.064;2023-04-25T09:23:02;9.90;99.90
12053;DHT22;6087;48.982;12.064;2023-04-25T09:25:34;9.80;1.00
12053;DHT22;6087;48.982;12.064;2023-04-25T09:28:04;9.80;1.00
12053;DHT22;6087;48.982;12.064;2023-04-25T09:30:32;9.60;99.90
12053;DHT22;6087;48.982;12.064;2023-04-25T09:33:04;9.50;1.00
12053;DHT22;6087;48.982;12.064;2023-04-25T09:35:39;9.40;99.90
12053;DHT22;6087;48.982;12.064;2023-04-25T09:38:13;9.50;99.90
12053;DHT22;6087;48.982;12.064;2023-04-25T09:40:41;9.50;1.00
12053;DHT22;6087;48.982;12.064;2023-04-25T09:43:18;9.60;99.90
12053;DHT22;6087;48.982;12.064;2023-04-25T09:45:45;9.70;1.00
12053;DHT22;6087;48.982;12.064;2023-04-25T09:48:17;9.70;99.90
12053;DHT22;6087;48.982;12.064;2023-04-25T09:50:45;9.90;1.00
12053;DHT22;6087;48.982;12.064;2023-04-25T09:53:12;9.90;99.90
12053;DHT22;6087;48.982;12.064;2023-04-25T09:55:41;9.90;99.90
12053;DHT22;6087;48.982;12.064;2023-04-25T09:58:10;10.10;99.90
12053;DHT22;6087;48.982;12.064;2023-04-25T10:00:38;10.40;1.00
12053;DHT22;6087;48.982;12.064;2023-04-25T10:03:09;10.50;1.00
12053;DHT22;6087;48.982;12.064;2023-04-25T10:05:37;10.50;99.90
12053;DHT22;6087;48.982;12.064;2023-04-25T10:08:06;10.60;89.10
12053;DHT22;6087;48.982;12.064;2023-04-25T10:10:34;10.50;99.90
12053;DHT22;6087;48.982;12.064;2023-04-25T10:13:04;10.60;1.00
12053;DHT22;6087;48.982;12.064;2023-04-25T10:15:34;10.50;1.00
12053;DHT22;6087;48.982;12.064;2023-04-25T10:18:02;10.60;1.00
12053;DHT22;6087;48.982;12.064;2023-04-25T10:20:32;10.50;1.00
12053;DHT22;6087;48.982;12.064;2023-04-25T10:23:09;10.60;1.00
12053;DHT22;6087;48.982;12.064;2023-04-25T10:25:39;10.50;1.00
12053;DHT22;6087;48.982;12.064;2023-04-25T10:28:06;10.60;1.00
12053;DHT22;6087;48.982;12.064;2023-04-25T10:30:36;10.70;1.00
12053;DHT22;6087;48.982;12.064;2023-04-25T10:33:16;10.70;1.00
12053;DHT22;6087;48.982;12.064;2023-04-25T10:35:45;10.80;1.00
12053;DHT22;6087;48.982;12.064;2023-04-25T10:38:19;10.90;1.00
12053;DHT22;6087;48.982;12.064;2023-04-25T10:41:02;11.00;99.90
12053;DHT22;6087;48.982;12.064;2023-04-25T10:43:34;10.80;99.90
12053;DHT22;6087;48.982;12.064;2023-04-25T10:46:02;10.90;1.00
12053;DHT22;6087;48.982;12.064;2023-04-25T10:48:31;11.00;1.00
12053;DHT22;6087;48.982;12.064;2023-04-25T10:51:08;11.00;1.00
12053;DHT22;6087;48.982;12.064;2023-04-25T10:53:38;11.10;1.00
12053;DHT22;6087;48.982;12.064;2023-04-25T10:56:10;11.20;1.00
12053;DHT22;6087;48.982;12.064;2023-04-25T10:58:42;11.30;1.00
12053;DHT22;6087;48.982;12.064;2023-04-25T11:01:11;11.40;1.00
12053;DHT22;6087;48.982;12.064;2023-04-25T11:03:43;11.50;99.90
12053;DHT22;6087;48.982;12.064;2023-04-25T11:06:20;11.60;99.90
12053;DHT22;6087;48.982;12.064;2023-04-25T11:08:51;11.70;99.90
12053;DHT22;6087;48.982;12.064;2023-04-25T11:11:18;11.50;99.90
12053;DHT22;6087;48.982;12.064;2023-04-25T11:13:48;11.40;99.90
12053;DHT22;6087;48.982;12.064;2023-04-25T11:16:16;11.50;99.90
12053;DHT22;6087;48.982;12.064;2023-04-25T11:18:43;11.50;99.90
12053;DHT22;6087;48.982;12.064;2023-04-25T11:21:11;11.40;90.50
12053;DHT22;6087;48.982;12.064;2023-04-25T11:23:38;11.50;73.60
12053;DHT22;6087;48.982;12.064;2023-04-25T11:26:06;11.50;68.20
12053;DHT22;6087;48.982;12.064;2023-04-25T11:28:33;11.50;51.40
12053;DHT22;6087;48.982;12.064;2023-04-25T11:31:00;11.50;35.00
12053;DHT22;6087;48.982;12.064;2023-04-25T11:33:29;11.60;7.90
12053;DHT22;6087;48.982;12.064;2023-04-25T11:35:56;11.60;1.00
12053;DHT22;6087;48.982;12.064;2023-04-25T11:38:24;11.80;24.10
12053;DHT22;6087;48.982;12.064;2023-04-25T11:40:52;12.10;77.10
12053;DHT22;6087;48.982;12.064;2023-04-25T11:43:22;12.30;90.00
12053;DHT22;6087;48.982;12.064;2023-04-25T11:45:50;12.40;46.40
12053;DHT22;6087;48.982;12.064;2023-04-25T11:48:17;12.40;1.00
12053;DHT22;6087;48.982;12.064;2023-04-25T11:50:45;12.60;1.00
12053;DHT22;6087;48.982;12.064;2023-04-25T11:53:12;12.80;1.00
12053;DHT22;6087;48.982;12.064;2023-04-25T11:55:39;12.90;1.00
12053;DHT22;6087;48.982;12.064;2023-04-25T11:58:06;13.00;1.00
12053;DHT22;6087;48.982;12.064;2023-04-25T12:00:35;12.90;1.00
12053;DHT22;6087;48.982;12.064;2023-04-25T12:03:02;12.80;1.00
12053;DHT22;6087;48.982;12.064;2023-04-25T12:05:30;12.80;1.00
12053;DHT22;6087;48.982;12.064;2023-04-25T12:08:09;12.60;1.00
12053;DHT22;6087;48.982;12.064;2023-04-25T12:10:37;12.50;1.00
12053;DHT22;6087;48.982;12.064;2023-04-25T12:13:18;12.60;1.00
12053;DHT22;6087;48.982;12.064;2023-04-25T12:15:47;12.50;1.00
12053;DHT22;6087;48.982;12.064;2023-04-25T12:18:14;12.30;1.00
12053;DHT22;6087;48.982;12.064;2023-04-25T12:20:41;12.40;1.00
12053;DHT22;6087;48.982;12.064;2023-04-25T12:23:09;12.60;1.00
12053;DHT22;6087;48.982;12.064;2023-04-25T12:25:38;12.90;1.00
12053;DHT22;6087;48.982;12.064;2023-04-25T12:28:13;13.20;1.00
12053;DHT22;6087;48.982;12.064;2023-04-25T12:30:54;13.60;1.00
12053;DHT22;6087;48.982;12.064;2023-04-25T12:33:21;13.70;1.00
12053;DHT22;6087;48.982;12.064;2023-04-25T12:35:56;13.70;1.00
12053;DHT22;6087;48.982;12.064;2023-04-25T12:38:27;13.70;1.00
12053;DHT22;6087;48.982;12.064;2023-04-25T12:40:54;13.40;1.00
12053;DHT22;6087;48.982;12.064;2023-04-25T12:43:24;13.30;1.00
12053;DHT22;6087;48.982;12.064;2023-04-25T12:46:00;13.10;1.00
12053;DHT22;6087;48.982;12.064;2023-04-25T12:48:32;13.00;1.00
12053;DHT22;6087;48.982;12.064;2023-04-25T12:50:59;12.90;1.00
12053;DHT22;6087;48.982;12.064;2023-04-25T12:53:26;13.00;1.00
12053;DHT22;6087;48.982;12.064;2023-04-25T12:55:59;13.10;1.00
12053;DHT22;6087;48.982;12.064;2023-04-25T12:58:29;13.30;1.00
12053;DHT22;6087;48.982;12.064;2023-04-25T13:00:56;13.40;1.00
12053;DHT22;6087;48.982;12.064;2023-04-25T13:03:24;13.20;1.00
12053;DHT22;6087;48.982;12.064;2023-04-25T13:05:51;13.10;1.00
12053;DHT22;6087;48.982;12.064;2023-04-25T13:08:18;13.00;1.00
12053;DHT22;6087;48.982;12.064;2023-04-25T13:10:45;12.70;1.00
12053;DHT22;6087;48.982;12.064;2023-04-25T13:13:21;12.80;1.00
12053;DHT22;6087;48.982;12.064;2023-04-25T13:15:48;13.10;1.00
12053;DHT22;6087;48.982;12.064;2023-04-25T13:18:15;13.10;1.00
12053;DHT22;6087;48.982;12.064;2023-04-25T13:20:43;12.90;1.00
12053;DHT22;6087;48.982;12.064;2023-04-25T13:23:11;12.70;1.00
12053;DHT22;6087;48.982;12.064;2023-04-25T13:25:38;12.60;1.00
12053;DHT22;6087;48.982;12.064;2023-04-25T13:28:05;12.50;1.00
12053;DHT22;6087;48.982;12.064;2023-04-25T13:30:32;12.30;1.00
12053;DHT22;6087;48.982;12.064;2023-04-25T13:32:59;12.20;1.00
12053;DHT22;6087;48.982;12.064;2023-04-25T13:35:29;12.10;1.00
12053;DHT22;6087;48.982;12.064;2023-04-25T13:37:57;12.00;1.00
12053;DHT22;6087;48.982;12.064;2023-04-25T13:40:33;12.00;1.00
12053;DHT22;6087;48.982;12.064;2023-04-25T13:43:01;12.10;1.00
12053;DHT22;6087;48.982;12.064;2023-04-25T13:45:28;12.10;1.00
12053;DHT22;6087;48.982;12.064;2023-04-25T13:47:55;12.10;1.00
12053;DHT22;6087;48.982;12.064;2023-04-25T13:50:21;12.10;1.00
12053;DHT22;6087;48.982;12.064;2023-04-25T13:52:48;12.20;1.00
12053;DHT22;6087;48.982;12.064;2023-04-25T13:55:19;12.20;1.00
12053;DHT22;6087;48.982;12.064;2023-04-25T13:57:49;12.30;1.00
12053;DHT22;6087;48.982;12.064;2023-04-25T14:00:17;12.30;1.00
12053;DHT22;6087;48.982;12.064;2023-04-25T14:02:50;12.30;1.00
12053;DHT22;6087;48.982;12.064;2023-04-25T14:05:24;12.40;1.00
12053;DHT22;6087;48.982;12.064;2023-04-25T14:07:52;12.40;1.00
12053;DHT22;6087;48.982;12.064;2023-04-25T14:10:21;12.40;1.00
12053;DHT22;6087;48.982;12.064;2023-04-25T14:12:48;12.40;1.00
12053;DHT22;6087;48.982;12.064;2023-04-25T14:15:15;12.40;1.00
12053;DHT22;6087;48.982;12.064;2023-04-25T14:17:42;12.40;1.00
12053;DHT22;6087;48.982;12.064;2023-04-25T14:20:13;12.40;1.00
12053;DHT22;6087;48.982;12.064;2023-04-25T14:22:40;12.30;1.00
12053;DHT22;6087;48.982;12.064;2023-04-25T14:25:09;12.30;1.00
12053;DHT22;6087;48.982;12.064;2023-04-25T14:27:37;12.40;1.00
12053;DHT22;6087;48.982;12.064;2023-04-25T14:30:06;12.30;1.00
12053;DHT22;6087;48.982;12.064;2023-04-25T14:32:34;12.30;1.00
12053;DHT22;6087;48.982;12.064;2023-04-25T14:35:01;12.40;1.00
12053;DHT22;6087;48.982;12.064;2023-04-25T14:37:28;12.50;1.00
12053;DHT22;6087;48.982;12.064;2023-04-25T14:39:55;12.70;1.00
12053;DHT22;6087;48.982;12.064;2023-04-25T14:42:22;12.60;1.00
12053;DHT22;6087;48.982;12.064;2023-04-25T14:44:51;12.70;1.00
12053;DHT22;6087;48.982;12.064;2023-04-25T14:47:18;12.80;1.00
12053;DHT22;6087;48.982;12.064;2023-04-25T14:49:45;12.80;1.00
12053;DHT22;6087;48.982;12.064;2023-04-25T14:52:22;12.70;1.00
12053;DHT22;6087;48.982;12.064;2023-04-25T14:54:55;12.50;1.00
12053;DHT22;6087;48.982;12.064;2023-04-25T14:57:22;12.20;1.00
12053;DHT22;6087;48.982;12.064;2023-04-25T14:59:49;12.00;1.00
12053;DHT22;6087;48.982;12.064;2023-04-25T15:02:17;11.90;1.00
12053;DHT22;6087;48.982;12.064;2023-04-25T15:04:50;11.90;1.00
12053;DHT22;6087;48.982;12.064;2023-04-25T15:07:20;11.80;1.00
12053;DHT22;6087;48.982;12.064;2023-04-25T15:09:47;11.80;1.00
12053;DHT22;6087;48.982;12.064;2023-04-25T15:12:14;11.70;1.00
12053;DHT22;6087;48.982;12.064;2023-04-25T15:14:45;11.80;1.00
12053;DHT22;6087;48.982;12.064;2023-04-25T15:17:12;11.80;1.00
12053;DHT22;6087;48.982;12.064;2023-04-25T15:19:41;11.70;1.00
12053;DHT22;6087;48.982;12.064;2023-04-25T15:22:08;11.60;1.00
12053;DHT22;6087;48.982;12.064;2023-04-25T15:24:35;11.60;1.00
12053;DHT22;6087;48.982;12.064;2023-04-25T15:27:02;11.70;1.00
12053;DHT22;6087;48.982;12.064;2023-04-25T15:29:30;11.80;1.00
12053;DHT22;6087;48.982;12.064;2023-04-25T15:32:22;12.00;1.00
12053;DHT22;6087;48.982;12.064;2023-04-25T15:35:06;12.10;1.00
12053;DHT22;6087;48.982;12.064;2023-04-25T15:37:34;12.20;1.00
12053;DHT22;6087;48.982;12.064;2023-04-25T15:40:09;12.10;1.00
12053;DHT22;6087;48.982;12.064;2023-04-25T15:42:40;11.90;1.00
12053;DHT22;6087;48.982;12.064;2023-04-25T15:45:49;11.80;1.00
12053;DHT22;6087;48.982;12.064;2023-04-25T15:48:06;11.60;1.00
12053;DHT22;6087;48.982;12.064;2023-04-25T15:50:34;11.60;1.00
12053;DHT22;6087;48.982;12.064;2023-04-25T15:53:02;11.50;1.00
12053;DHT22;6087;48.982;12.064;2023-04-25T15:55:29;11.50;1.00
12053;DHT22;6087;48.982;12.064;2023-04-25T15:58:11;11.50;1.00
12053;DHT22;6087;48.982;12.064;2023-04-25T16:00:52;11.40;1.00